Time;durP1;ratioP1;P1;durP2;ratioP2;P2;SDS_P1;SDS_P2;PMS_P1;PMS_P2;Temp;Humidity;BMP_temperature;BMP_pressure;BME280_temperature;BME280_humidity;BME280_pressure;Samples;Min_cycle;Max_cycle;Signal;HPM_P1;HPM_P2
2023/02/23 00:01:50;;;;;;;99.50;46.50;;;9.60;99.90;;;;;;5095963;28;20307;-82
2023/02/23 00:04:18;;;;;;;98.40;47.03;;;9.50;99.90;;;;;;5106111;28;20197;-80
2023/02/23 00:06:46;;;;;;;109.43;49.43;;;9.50;99.90;;;;;;5108088;28;20193;-81
2023/02/23 00:09:21;;;;;;;98.97;47.87;;;9.50;99.90;;;;;;5107605;28;20300;-81
2023/02/23 00:11:48;;;;;;;99.30;48.00;;;9.40;99.90;;;;;;5106908;28;20200;-83
2023/02/23 00:14:15;;;;;;;101.57;45.87;;;9.30;99.90;;;;;;5102259;28;20228;-83
2023/02/23 00:16:44;;;;;;;104.60;46.87;;;9.40;99.90;;;;;;5103948;28;20201;-82
2023/02/23 00:19:12;;;;;;;103.57;47.00;;;9.40;99.90;;;;;;5111916;28;20208;-83
2023/02/23 00:21:41;;;;;;;110.10;47.70;;;9.40;99.90;;;;;;5091868;28;20587;-83
2023/02/23 00:24:12;;;;;;;106.03;46.33;;;9.40;99.90;;;;;;5094883;28;20201;-83
2023/02/23 00:26:41;;;;;;;108.00;46.33;;;9.40;99.90;;;;;;5091741;28;20204;-82
2023/02/23 00:29:12;;;;;;;99.20;44.47;;;9.40;99.90;;;;;;5095696;28;20200;-80
2023/02/23 00:31:39;;;;;;;100.90;43.60;;;9.40;99.90;;;;;;5082348;28;20292;-80
2023/02/23 00:34:10;;;;;;;96.87;43.63;;;9.40;99.90;;;;;;5095785;28;20207;-81
2023/02/23 00:36:39;;;;;;;106.60;44.60;;;9.60;99.90;;;;;;5082219;28;20205;-80
2023/02/23 00:39:17;;;;;;;96.10;41.83;;;9.50;99.90;;;;;;5095510;28;20204;-80
2023/02/23 00:41:48;;;;;;;100.03;43.53;;;9.50;99.90;;;;;;5081372;28;20231;-80
2023/02/23 00:44:16;;;;;;;103.50;40.90;;;9.50;99.90;;;;;;5081321;28;20208;-81
2023/02/23 00:46:44;;;;;;;97.50;41.90;;;9.50;99.90;;;;;;5095442;28;20262;-79
2023/02/23 00:49:12;;;;;;;95.03;41.93;;;9.40;99.90;;;;;;5094910;28;20217;-79
2023/02/23 00:51:40;;;;;;;102.83;41.67;;;9.30;99.90;;;;;;5095329;28;20201;-79
2023/02/23 00:54:08;;;;;;;98.70;42.43;;;9.30;99.90;;;;;;5094888;28;20211;-80
2023/02/23 00:56:35;;;;;;;106.13;42.97;;;9.30;99.90;;;;;;5094205;28;20201;-79
2023/02/23 00:59:03;;;;;;;100.30;40.67;;;9.40;99.90;;;;;;5095026;28;20197;-80
2023/02/23 01:01:30;;;;;;;94.07;41.63;;;9.30;99.90;;;;;;5094805;28;20189;-79
2023/02/23 01:03:56;;;;;;;98.43;41.70;;;9.30;99.90;;;;;;5095028;28;20201;-81
2023/02/23 01:06:23;;;;;;;91.40;40.03;;;9.10;99.90;;;;;;5095042;28;20204;-79
2023/02/23 01:08:55;;;;;;;101.80;41.70;;;9.10;99.90;;;;;;5094572;28;20208;-81
2023/02/23 01:11:26;;;;;;;97.40;40.07;;;9.00;99.90;;;;;;5095338;28;20189;-82
2023/02/23 01:13:56;;;;;;;89.90;39.73;;;9.00;99.90;;;;;;5094848;28;20228;-82
2023/02/23 01:16:28;;;;;;;96.50;41.10;;;9.00;99.90;;;;;;5095318;28;20212;-85
2023/02/23 01:18:59;;;;;;;90.80;39.23;;;9.00;99.90;;;;;;5094220;28;20656;-82
2023/02/23 01:21:27;;;;;;;96.90;40.43;;;9.00;99.90;;;;;;5094820;28;20205;-82
2023/02/23 01:23:55;;;;;;;95.40;39.93;;;9.00;99.90;;;;;;5094478;28;20242;-84
2023/02/23 01:26:26;;;;;;;95.33;40.20;;;9.00;99.90;;;;;;5094602;28;20671;-84
2023/02/23 01:28:55;;;;;;;99.47;40.93;;;9.00;99.90;;;;;;5094331;28;20208;-83
2023/02/23 01:31:23;;;;;;;96.07;40.90;;;8.90;99.90;;;;;;5094710;28;20205;-79
2023/02/23 01:33:54;;;;;;;90.67;39.83;;;8.90;99.90;;;;;;5094657;28;20200;-80
2023/02/23 01:36:21;;;;;;;100.73;40.80;;;8.90;99.90;;;;;;5094330;28;20548;-81
2023/02/23 01:38:50;;;;;;;99.10;40.03;;;8.90;99.90;;;;;;5094013;28;20208;-80
2023/02/23 01:41:17;;;;;;;98.23;40.70;;;8.80;99.90;;;;;;5094581;28;20189;-82
2023/02/23 01:44:03;;;;;;;126.07;58.55;;;9.00;99.90;;;;;;5092922;28;20786;-80
2023/02/23 01:46:32;;;;;;;110.17;44.67;;;9.10;99.90;;;;;;5094107;28;20193;-80
2023/02/23 01:49:02;;;;;;;105.20;43.17;;;9.10;99.90;;;;;;5093772;28;20213;-81
2023/02/23 01:51:34;;;;;;;102.13;41.03;;;9.30;99.90;;;;;;5093754;28;20209;-80
2023/02/23 01:54:06;;;;;;;95.93;39.70;;;9.00;99.90;;;;;;5093887;28;20674;-79
2023/02/23 01:56:35;;;;;;;91.17;41.33;;;9.00;99.90;;;;;;5094022;28;20193;-80
2023/02/23 01:59:07;;;;;;;97.23;40.27;;;8.90;99.90;;;;;;5093714;28;20277;-80
2023/02/23 02:01:34;;;;;;;93.23;40.17;;;8.90;99.90;;;;;;5093578;28;20208;-80
2023/02/23 02:04:05;;;;;;;95.97;40.60;;;9.00;99.90;;;;;;5093716;28;20672;-80
2023/02/23 02:06:38;;;;;;;86.13;38.87;;;9.10;99.90;;;;;;5093352;28;20201;-80
2023/02/23 02:09:09;;;;;;;89.27;39.73;;;8.90;99.90;;;;;;5091586;28;20205;-80
2023/02/23 02:11:37;;;;;;;110.15;52.72;;;8.90;99.90;;;;;;5072979;28;20427;-79
2023/02/23 02:14:11;;;;;;;92.97;42.27;;;8.90;99.90;;;;;;5092228;28;20252;-80
2023/02/23 02:17:02;;;;;;;97.80;42.37;;;8.90;99.90;;;;;;5084864;28;20587;-79
2023/02/23 02:20:00;;;;;;;89.93;39.53;;;8.90;99.90;;;;;;5093521;28;20208;-79
2023/02/23 02:22:47;;;;;;;101.50;39.57;;;8.80;99.90;;;;;;5092963;28;20225;-78
2023/02/23 02:25:37;;;;;;;99.70;42.37;;;8.80;99.90;;;;;;5093306;28;20264;-78
2023/02/23 02:28:38;;;;;;;93.97;42.57;;;9.00;99.90;;;;;;5093177;28;20686;-80
2023/02/23 02:31:37;;;;;;;92.80;40.70;;;8.80;99.90;;;;;;5081899;28;20204;-79
2023/02/23 02:34:43;;;;;;;103.93;43.73;;;9.00;99.90;;;;;;5093280;28;20205;-79
2023/02/23 02:37:55;;;;;;;106.93;42.80;;;9.00;99.90;;;;;;5068258;28;20216;-79
2023/02/23 02:40:31;;;;;;;120.70;53.53;;;9.00;99.90;;;;;;5078424;28;20513;-81
2023/02/23 02:43:10;;;;;;;106.47;45.93;;;8.80;99.90;;;;;;5086459;28;20209;-79
2023/02/23 02:45:48;;;;;;;103.70;43.73;;;8.60;99.90;;;;;;5087815;28;20201;-79
2023/02/23 02:48:29;;;;;;;99.93;44.30;;;8.90;99.90;;;;;;5092544;28;20220;-78
2023/02/23 02:51:04;;;;;;;94.10;42.40;;;8.70;99.90;;;;;;5092496;28;20266;-78
2023/02/23 02:53:40;;;;;;;101.60;44.13;;;8.50;99.90;;;;;;5092576;28;20204;-78
2023/02/23 02:56:11;;;;;;;100.20;43.37;;;8.70;99.90;;;;;;5073037;28;20198;-80
2023/02/23 02:58:42;;;;;;;103.17;43.53;;;8.80;99.90;;;;;;5088213;28;20215;-79
2023/02/23 04:17:36;;;;;;;92.80;40.63;;;8.70;99.90;;;;;;5086367;28;20197;-80
2023/02/23 04:20:06;;;;;;;85.03;40.23;;;8.90;99.90;;;;;;5091645;28;20202;-79
2023/02/23 04:22:34;;;;;;;91.00;40.50;;;8.80;99.90;;;;;;5087061;28;20221;-80
2023/02/23 04:25:02;;;;;;;90.37;40.67;;;8.80;99.90;;;;;;5090856;28;20197;-81
2023/02/23 04:27:29;;;;;;;90.83;42.23;;;8.80;99.90;;;;;;5088083;28;20216;-80
2023/02/23 04:29:55;;;;;;;81.83;38.93;;;8.90;99.90;;;;;;5091033;28;20212;-79
2023/02/23 04:32:23;;;;;;;88.37;41.27;;;8.80;99.90;;;;;;5087985;28;20219;-83
2023/02/23 04:34:50;;;;;;;91.47;41.43;;;8.90;99.90;;;;;;5095514;28;20585;-80
2023/02/23 04:37:18;;;;;;;93.17;41.90;;;9.00;99.90;;;;;;5095768;28;20205;-80
2023/02/23 04:39:48;;;;;;;100.37;43.97;;;8.90;99.90;;;;;;5095196;28;20224;-81
2023/02/23 04:42:16;;;;;;;98.83;43.23;;;8.90;99.90;;;;;;5095704;28;20209;-80
2023/02/23 04:44:44;;;;;;;98.13;43.80;;;8.90;99.90;;;;;;5078890;28;20217;-79
2023/02/23 04:47:15;;;;;;;98.97;45.03;;;9.00;99.90;;;;;;5090887;28;20242;-83
2023/02/23 04:49:43;;;;;;;99.33;43.47;;;9.00;99.90;;;;;;5090759;28;20213;-80
2023/02/23 04:52:10;;;;;;;97.53;44.27;;;8.80;99.90;;;;;;5095095;28;20201;-78
2023/02/23 04:54:39;;;;;;;95.63;42.83;;;8.80;99.90;;;;;;5092244;28;20209;-79
2023/02/23 04:57:07;;;;;;;96.00;42.57;;;8.80;99.90;;;;;;5085276;28;20192;-80
2023/02/23 04:59:34;;;;;;;94.83;43.67;;;8.80;99.90;;;;;;5095393;28;20305;-82
2023/02/23 05:02:01;;;;;;;96.30;43.87;;;8.90;99.90;;;;;;5095069;28;20205;-83
2023/02/23 05:04:28;;;;;;;97.37;44.27;;;8.90;99.90;;;;;;5094572;28;20245;-84
2023/02/23 05:06:55;;;;;;;96.90;44.63;;;8.70;99.90;;;;;;5095022;28;20209;-84
2023/02/23 05:09:23;;;;;;;91.13;43.53;;;8.50;99.90;;;;;;5094396;28;20197;-79
2023/02/23 05:11:52;;;;;;;99.67;43.90;;;8.40;99.90;;;;;;5082894;28;20190;-80
2023/02/23 05:14:20;;;;;;;90.97;43.07;;;8.50;99.90;;;;;;5093099;28;20232;-80
2023/02/23 05:16:47;;;;;;;99.87;44.47;;;8.40;99.90;;;;;;5083205;28;20300;-82
2023/02/23 05:19:14;;;;;;;103.20;44.53;;;8.30;99.90;;;;;;5094221;28;20537;-81
2023/02/23 05:21:41;;;;;;;94.27;41.13;;;8.50;99.90;;;;;;5094832;28;20208;-80
2023/02/23 05:24:09;;;;;;;96.63;43.93;;;8.60;99.90;;;;;;5094665;28;20225;-79
2023/02/23 05:26:36;;;;;;;98.53;43.87;;;8.60;99.90;;;;;;5094696;28;20197;-79
2023/02/23 05:29:05;;;;;;;99.93;44.47;;;8.70;99.90;;;;;;5093669;28;20238;-81
2023/02/23 05:31:32;;;;;;;99.33;42.77;;;8.60;99.90;;;;;;5094567;28;20193;-80
2023/02/23 05:34:01;;;;;;;93.63;43.47;;;8.70;99.90;;;;;;5094549;28;20288;-79
2023/02/23 05:36:29;;;;;;;90.90;41.03;;;8.60;99.90;;;;;;5094932;28;20206;-80
2023/02/23 05:38:56;;;;;;;94.13;42.53;;;8.70;99.90;;;;;;5094366;28;20212;-82
2023/02/23 05:41:24;;;;;;;96.03;41.53;;;8.80;99.90;;;;;;5094516;28;20208;-84
2023/02/23 05:43:52;;;;;;;91.57;41.90;;;9.00;99.90;;;;;;5093851;28;20550;-83
2023/02/23 05:46:24;;;;;;;96.43;42.70;;;9.10;99.90;;;;;;5093816;28;20211;-84
2023/02/23 05:48:51;;;;;;;89.60;41.87;;;9.00;99.90;;;;;;5093747;28;20223;-80
2023/02/23 05:51:18;;;;;;;88.13;42.73;;;9.00;99.90;;;;;;5083149;28;20668;-83
2023/02/23 05:53:47;;;;;;;90.80;40.57;;;9.10;99.90;;;;;;5079497;28;20206;-82
2023/02/23 05:56:19;;;;;;;96.43;43.40;;;9.10;99.90;;;;;;5089596;28;20205;-82
2023/02/23 05:58:47;;;;;;;88.47;41.97;;;9.00;99.90;;;;;;5093744;28;20258;-82
2023/02/23 06:01:14;;;;;;;89.03;41.87;;;9.00;99.90;;;;;;5085851;28;20201;-82
2023/02/23 06:03:42;;;;;;;95.90;42.93;;;9.00;99.90;;;;;;5093710;28;20236;-84
2023/02/23 06:06:11;;;;;;;91.33;40.87;;;9.10;99.90;;;;;;5094013;28;20201;-82
2023/02/23 06:08:38;;;;;;;93.37;41.60;;;9.20;99.90;;;;;;5093781;28;20208;-79
2023/02/23 06:11:05;;;;;;;91.87;41.43;;;9.20;99.90;;;;;;5094179;28;20212;-80
2023/02/23 06:13:32;;;;;;;85.50;43.00;;;9.20;99.90;;;;;;5092948;28;20714;-79
2023/02/23 06:16:00;;;;;;;90.70;41.03;;;9.30;99.90;;;;;;5081168;28;20206;-79
2023/02/23 06:18:27;;;;;;;84.73;40.87;;;9.10;99.90;;;;;;5093855;28;20556;-80
2023/02/23 06:20:58;;;;;;;82.07;41.50;;;8.90;99.90;;;;;;5093503;28;20265;-80
2023/02/23 06:23:25;;;;;;;88.90;40.43;;;8.90;99.90;;;;;;5093591;28;20249;-80
2023/02/23 06:25:52;;;;;;;84.80;41.23;;;8.70;99.90;;;;;;5092964;28;20208;-82
2023/02/23 06:28:19;;;;;;;81.27;39.30;;;8.70;99.90;;;;;;5088458;28;20216;-86
2023/02/23 06:30:47;;;;;;;82.07;39.03;;;8.70;99.90;;;;;;5088365;28;20194;-86
2023/02/23 06:33:14;;;;;;;85.20;39.17;;;8.70;99.90;;;;;;5087985;28;20251;-86
2023/02/23 06:35:41;;;;;;;86.10;41.77;;;8.60;99.90;;;;;;5086019;28;20201;-85
2023/02/23 06:38:09;;;;;;;89.07;42.00;;;8.60;99.90;;;;;;5088408;28;20205;-85
2023/02/23 06:40:38;;;;;;;87.27;40.83;;;8.50;99.90;;;;;;5082430;28;20207;-80
2023/02/23 06:43:05;;;;;;;85.80;42.07;;;8.30;99.90;;;;;;5092819;28;20225;-80
2023/02/23 06:45:32;;;;;;;98.53;45.30;;;8.40;99.90;;;;;;5092679;28;20193;-82
2023/02/23 06:47:59;;;;;;;92.80;43.50;;;8.50;99.90;;;;;;5084223;28;20208;-83
2023/02/23 06:50:26;;;;;;;93.87;43.73;;;8.50;99.90;;;;;;5085982;28;20205;-81
2023/02/23 06:52:53;;;;;;;99.77;45.87;;;8.60;99.90;;;;;;5075807;28;20201;-81
2023/02/23 06:55:21;;;;;;;96.23;45.73;;;8.60;99.90;;;;;;5083389;28;20216;-79
2023/02/23 06:57:49;;;;;;;99.67;45.20;;;8.60;99.90;;;;;;5078449;28;20205;-79
2023/02/23 07:00:16;;;;;;;97.70;44.27;;;8.70;99.90;;;;;;5093250;28;20205;-78
2023/02/23 07:02:43;;;;;;;101.97;45.27;;;8.70;99.90;;;;;;5092647;28;20197;-82
2023/02/23 07:05:12;;;;;;;96.10;44.87;;;8.70;99.90;;;;;;5092648;28;20225;-82
2023/02/23 07:07:39;;;;;;;96.50;44.23;;;8.70;99.90;;;;;;5093107;28;20216;-80
2023/02/23 07:10:07;;;;;;;94.43;43.80;;;8.60;99.90;;;;;;5093326;28;20213;-81
2023/02/23 07:12:35;;;;;;;101.00;46.47;;;8.60;99.90;;;;;;5092276;28;20205;-80
2023/02/23 07:15:02;;;;;;;98.47;45.83;;;8.60;99.90;;;;;;5079746;28;20220;-80
2023/02/23 07:17:29;;;;;;;92.87;46.00;;;8.60;99.90;;;;;;5092639;28;20197;-80
2023/02/23 07:19:56;;;;;;;99.87;46.37;;;8.70;99.90;;;;;;5093027;28;20200;-80
2023/02/23 07:22:26;;;;;;;97.33;46.07;;;8.80;99.90;;;;;;5092342;28;20368;-79
2023/02/23 07:24:53;;;;;;;102.30;46.90;;;8.80;99.90;;;;;;5092142;28;20587;-80
2023/02/23 07:27:20;;;;;;;96.30;44.33;;;8.80;99.90;;;;;;5092353;28;20652;-80
2023/02/23 07:29:48;;;;;;;96.57;46.03;;;8.70;99.90;;;;;;5092540;28;20209;-80
2023/02/23 07:32:15;;;;;;;93.87;44.13;;;8.80;99.90;;;;;;5092032;28;20272;-79
2023/02/23 07:34:41;;;;;;;94.57;45.80;;;8.90;99.90;;;;;;5092671;28;20558;-80
2023/02/23 07:37:08;;;;;;;84.73;42.37;;;8.70;99.90;;;;;;5092068;28;20566;-79
2023/02/23 07:39:35;;;;;;;93.90;45.77;;;8.80;99.90;;;;;;5092325;28;20217;-78
2023/02/23 07:42:02;;;;;;;92.50;42.93;;;9.00;99.90;;;;;;5078881;28;20202;-79
2023/02/23 07:44:29;;;;;;;85.27;43.30;;;9.20;99.90;;;;;;5092522;28;20228;-79
2023/02/23 07:46:57;;;;;;;85.77;41.90;;;9.20;99.90;;;;;;5092261;28;20652;-79
2023/02/23 07:49:24;;;;;;;86.10;43.77;;;9.30;99.90;;;;;;5092264;28;20216;-79
2023/02/23 07:51:50;;;;;;;91.90;45.13;;;9.20;99.90;;;;;;5089961;28;20262;-79
2023/02/23 07:54:17;;;;;;;84.10;42.57;;;9.00;99.90;;;;;;5080843;28;20275;-79
2023/02/23 07:56:44;;;;;;;99.40;58.47;;;8.80;99.90;;;;;;5090884;28;20429;-81
2023/02/23 07:59:11;;;;;;;84.13;45.50;;;9.00;99.90;;;;;;5092229;28;20251;-80
2023/02/23 08:01:38;;;;;;;84.73;43.77;;;9.10;99.90;;;;;;5091993;28;20201;-80
2023/02/23 08:04:06;;;;;;;80.83;41.97;;;9.20;99.90;;;;;;5091971;28;20221;-79
2023/02/23 08:06:35;;;;;;;78.83;41.73;;;9.20;99.90;;;;;;5094509;28;20569;-80
2023/02/23 08:09:04;;;;;;;77.23;40.73;;;9.00;99.90;;;;;;5095007;28;20205;-78
2023/02/23 08:11:31;;;;;;;77.97;41.70;;;9.10;99.90;;;;;;5095674;28;20209;-78
2023/02/23 08:13:59;;;;;;;71.03;39.47;;;9.00;99.90;;;;;;5092420;28;20224;-79
2023/02/23 08:16:26;;;;;;;79.37;42.03;;;9.30;99.90;;;;;;5095536;28;20205;-79
2023/02/23 08:18:53;;;;;;;78.63;41.70;;;9.50;99.90;;;;;;5092981;28;20197;-80
2023/02/23 08:21:21;;;;;;;71.47;38.93;;;9.60;99.90;;;;;;5094837;28;20679;-79
2023/02/23 08:23:48;;;;;;;75.07;41.50;;;9.40;99.90;;;;;;5095078;28;20232;-78
2023/02/23 08:26:15;;;;;;;74.40;39.63;;;9.50;99.90;;;;;;5095182;28;20245;-80
2023/02/23 08:28:45;;;;;;;71.73;40.17;;;9.50;99.90;;;;;;5094180;28;20212;-78
2023/02/23 08:31:12;;;;;;;69.03;38.90;;;9.70;99.90;;;;;;5095237;28;20201;-80
2023/02/23 08:33:39;;;;;;;72.57;39.63;;;9.80;99.90;;;;;;5095487;28;20208;-81
2023/02/23 08:36:07;;;;;;;77.70;40.17;;;9.70;99.90;;;;;;5095428;28;20205;-79
2023/02/23 08:38:36;;;;;;;77.70;40.53;;;9.80;99.90;;;;;;5094887;28;20212;-79
2023/02/23 08:41:04;;;;;;;71.33;39.77;;;10.00;99.90;;;;;;5094063;28;20266;-81
2023/02/23 08:43:31;;;;;;;70.93;39.27;;;10.00;99.90;;;;;;5094071;28;20225;-79
2023/02/23 08:45:58;;;;;;;68.30;39.40;;;10.00;99.90;;;;;;5088279;28;20194;-78
2023/02/23 08:48:25;;;;;;;70.20;38.90;;;9.80;99.90;;;;;;5094683;28;20214;-79
2023/02/23 08:50:56;;;;;;;64.83;36.33;;;10.00;99.90;;;;;;5095036;28;20208;-77
2023/02/23 08:53:24;;;;;;;65.30;37.70;;;9.90;99.90;;;;;;5094320;28;20209;-79
2023/02/23 08:55:57;;;;;;;65.30;38.03;;;9.90;99.90;;;;;;5094873;28;20255;-80
2023/02/23 08:58:24;;;;;;;68.37;39.07;;;10.00;99.90;;;;;;5094640;28;20209;-77
2023/02/23 09:00:52;;;;;;;69.57;39.40;;;9.90;99.90;;;;;;5095077;28;20206;-78
2023/02/23 09:03:19;;;;;;;65.97;37.63;;;9.60;99.90;;;;;;5094977;28;20217;-79
2023/02/23 09:05:46;;;;;;;71.53;47.13;;;9.70;99.90;;;;;;5094383;28;20454;-79
2023/02/23 09:08:15;;;;;;;65.63;39.87;;;9.50;99.90;;;;;;5094202;28;20201;-77
2023/02/23 09:10:42;;;;;;;62.93;37.93;;;9.40;99.90;;;;;;5094582;28;20206;-79
2023/02/23 09:13:14;;;;;;;64.97;37.27;;;9.60;99.90;;;;;;5094372;28;20261;-80
2023/02/23 09:15:42;;;;;;;62.10;36.27;;;9.50;99.90;;;;;;5093782;28;20209;-79
2023/02/23 09:18:13;;;;;;;58.43;35.20;;;9.50;99.90;;;;;;5082563;28;20221;-78
2023/02/23 09:20:42;;;;;;;60.80;34.37;;;9.60;99.90;;;;;;5092330;28;20202;-80
2023/02/23 09:23:09;;;;;;;63.23;38.03;;;9.60;99.90;;;;;;5094242;28;20658;-81
2023/02/23 09:25:42;;;;;;;65.37;37.30;;;9.60;99.90;;;;;;5094374;28;20232;-83
2023/02/23 09:28:10;;;;;;;65.27;37.40;;;9.70;99.90;;;;;;5094316;28;20681;-81
2023/02/23 09:30:40;;;;;;;63.07;35.93;;;9.60;99.90;;;;;;5080991;28;20201;-81
2023/02/23 09:33:08;;;;;;;63.27;37.63;;;9.50;99.90;;;;;;5093540;28;20213;-77
2023/02/23 09:35:35;;;;;;;59.30;35.97;;;9.50;99.90;;;;;;5094245;28;20400;-80
2023/02/23 09:38:03;;;;;;;61.97;36.67;;;9.40;99.90;;;;;;5094528;28;20633;-80
2023/02/23 09:40:37;;;;;;;68.27;48.10;;;9.50;99.90;;;;;;5093135;28;20452;-82
2023/02/23 09:43:07;;;;;;;59.37;38.03;;;9.60;99.90;;;;;;5093538;28;20248;-81
2023/02/23 09:45:42;;;;;;;57.37;36.40;;;9.80;99.90;;;;;;5093787;28;20232;-80
2023/02/23 09:48:15;;;;;;;54.73;35.13;;;10.20;99.90;;;;;;5093713;28;20208;-81
2023/02/23 09:50:48;;;;;;;55.77;34.53;;;10.00;99.90;;;;;;5093572;28;20312;-80
2023/02/23 09:53:35;;;;;;;51.90;32.40;;;9.80;99.90;;;;;;5093770;28;20690;-79
2023/02/23 09:56:10;;;;;;;49.33;31.77;;;9.90;99.90;;;;;;5090588;28;20233;-80
2023/02/23 09:58:36;;;;;;;48.53;31.13;;;10.20;99.90;;;;;;5093572;28;20201;-80
2023/02/23 10:01:38;;;;;;;48.00;29.93;;;10.10;99.90;;;;;;5093625;28;20683;-79
2023/02/23 10:04:11;;;;;;;50.03;32.07;;;10.20;99.90;;;;;;5083629;28;20201;-80
2023/02/23 10:06:41;;;;;;;49.30;31.97;;;10.10;99.90;;;;;;5093423;28;20200;-80
2023/02/23 10:09:18;;;;;;;51.47;32.53;;;10.00;99.90;;;;;;5093866;28;20209;-81
2023/02/23 10:11:55;;;;;;;54.37;33.10;;;10.20;99.90;;;;;;5093401;28;20278;-80
2023/02/23 10:14:56;;;;;;;52.13;33.73;;;10.30;99.90;;;;;;5092972;28;20315;-80
2023/02/23 10:17:34;;;;;;;48.23;29.97;;;10.30;99.90;;;;;;5093812;28;20204;-80
2023/02/23 10:20:09;;;;;;;44.67;29.33;;;10.50;99.90;;;;;;5093131;28;20198;-80
2023/02/23 10:22:37;;;;;;;48.60;29.83;;;10.60;99.90;;;;;;5093507;28;20683;-80
2023/02/23 10:25:11;;;;;;;43.77;29.50;;;10.70;99.90;;;;;;5092888;28;20226;-81
2023/02/23 10:27:41;;;;;;;44.73;28.93;;;10.50;99.90;;;;;;5093450;28;20206;-80
2023/02/23 10:30:18;;;;;;;43.57;28.10;;;10.50;99.90;;;;;;5092960;28;20197;-80
2023/02/23 10:32:52;;;;;;;42.37;27.70;;;10.50;99.90;;;;;;5094097;28;20198;-80
2023/02/23 10:35:22;;;;;;;46.43;30.03;;;10.30;99.90;;;;;;5093290;28;20202;-80
2023/02/23 10:37:50;;;;;;;46.77;30.00;;;10.50;99.90;;;;;;5093071;28;20201;-79
2023/02/23 10:40:22;;;;;;;49.40;29.27;;;10.50;99.90;;;;;;5079962;28;20206;-79
2023/02/23 10:42:49;;;;;;;42.60;27.47;;;10.50;99.90;;;;;;5093008;28;20262;-79
2023/02/23 10:45:21;;;;;;;42.53;28.43;;;10.50;99.90;;;;;;5093192;28;20244;-78
2023/02/23 10:47:52;;;;;;;41.70;28.30;;;10.50;99.90;;;;;;5092900;28;20205;-78
2023/02/23 10:50:21;;;;;;;43.27;28.20;;;10.80;99.90;;;;;;5092736;28;20233;-80
2023/02/23 10:52:50;;;;;;;47.27;29.20;;;10.90;99.90;;;;;;5092944;28;20217;-78
2023/02/23 10:55:24;;;;;;;44.73;27.73;;;10.90;99.90;;;;;;5092775;28;20197;-80
2023/02/23 10:58:00;;;;;;;46.53;29.50;;;11.10;99.90;;;;;;5092344;28;20667;-79
2023/02/23 11:00:31;;;;;;;43.37;28.23;;;10.80;99.90;;;;;;5092902;28;20218;-79
2023/02/23 11:03:02;;;;;;;48.27;30.97;;;10.90;99.90;;;;;;5092351;28;20210;-79
2023/02/23 11:05:36;;;;;;;47.40;30.53;;;10.70;99.90;;;;;;5093083;28;20279;-79
2023/02/23 11:08:11;;;;;;;46.40;29.13;;;10.60;99.90;;;;;;5092765;28;20285;-78
2023/02/23 11:10:38;;;;;;;46.90;31.13;;;10.50;99.90;;;;;;5092932;28;20577;-80
2023/02/23 11:13:04;;;;;;;50.63;32.70;;;10.30;99.90;;;;;;5093221;28;20220;-79
2023/02/23 11:15:34;;;;;;;49.63;32.73;;;10.30;99.90;;;;;;5093288;28;20619;-79
2023/02/23 11:18:03;;;;;;;49.27;31.43;;;10.50;99.90;;;;;;5092701;28;20203;-80
2023/02/23 11:20:34;;;;;;;52.33;33.77;;;10.60;99.90;;;;;;5092554;28;20229;-80
2023/02/23 11:23:01;;;;;;;51.33;32.80;;;10.60;99.90;;;;;;5092517;28;20209;-79
2023/02/23 11:25:31;;;;;;;46.97;31.67;;;10.40;99.90;;;;;;5092932;28;21058;-79
2023/02/23 11:28:00;;;;;;;47.07;30.37;;;10.40;99.90;;;;;;5091880;28;20234;-78
2023/02/23 11:30:35;;;;;;;46.33;28.83;;;10.60;99.90;;;;;;5093952;28;20217;-84
2023/02/23 11:33:16;;;;;;;42.73;28.30;;;10.40;99.90;;;;;;5080947;28;20206;-87
2023/02/23 11:35:43;;;;;;;44.80;29.50;;;10.50;99.90;;;;;;5082571;28;20285;-81
2023/02/23 11:38:22;;;;;;;44.53;29.47;;;10.40;99.90;;;;;;5091313;28;20195;-79
2023/02/23 11:41:00;;;;;;;46.47;28.57;;;10.70;99.90;;;;;;5087007;28;20203;-81
2023/02/23 11:43:27;;;;;;;40.20;27.33;;;10.90;99.90;;;;;;5092950;28;20221;-80
2023/02/23 11:45:56;;;;;;;39.67;26.87;;;11.10;99.90;;;;;;5095816;28;20228;-79
2023/02/23 11:48:28;;;;;;;38.53;26.63;;;11.20;99.90;;;;;;5082522;28;20303;-80
2023/02/23 11:50:56;;;;;;;43.67;27.77;;;11.10;99.90;;;;;;5083435;28;20204;-79
2023/02/23 11:53:28;;;;;;;46.40;34.70;;;11.00;99.90;;;;;;5095301;28;20412;-80
2023/02/23 11:56:06;;;;;;;41.20;28.87;;;11.20;99.90;;;;;;5096268;28;20200;-80
2023/02/23 11:58:37;;;;;;;40.57;27.83;;;11.20;99.90;;;;;;5093443;28;20191;-80
2023/02/23 12:01:10;;;;;;;39.57;26.70;;;11.10;99.90;;;;;;5092670;28;20200;-80
2023/02/23 12:03:46;;;;;;;37.13;25.37;;;10.90;99.90;;;;;;5095048;28;20282;-81
2023/02/23 12:06:26;;;;;;;38.97;26.20;;;10.70;99.90;;;;;;5095425;28;20217;-81
2023/02/23 12:08:58;;;;;;;39.13;25.93;;;10.60;99.90;;;;;;5095604;28;20222;-81
2023/02/23 12:11:28;;;;;;;38.83;26.20;;;10.60;99.90;;;;;;5095054;28;20203;-80
2023/02/23 12:14:00;;;;;;;39.63;25.77;;;10.80;99.90;;;;;;5086563;28;20226;-80
2023/02/23 12:16:33;;;;;;;42.57;25.60;;;11.00;99.90;;;;;;5092382;28;20214;-80
2023/02/23 12:19:07;;;;;;;40.13;25.33;;;11.00;99.90;;;;;;5095412;28;20209;-81
2023/02/23 12:21:39;;;;;;;40.07;25.43;;;10.50;99.90;;;;;;5086660;28;20261;-81
2023/02/23 12:24:15;;;;;;;42.53;26.73;;;10.30;99.90;;;;;;5088876;28;20565;-80
2023/02/23 12:26:49;;;;;;;38.03;24.30;;;10.40;99.90;;;;;;5090117;28;20592;-80
2023/02/23 12:29:23;;;;;;;42.50;27.83;;;10.40;99.90;;;;;;5090956;28;20197;-81
2023/02/23 12:31:54;;;;;;;46.40;32.60;;;10.60;99.90;;;;;;5094896;28;20431;-82
2023/02/23 12:34:27;;;;;;;43.43;28.20;;;10.50;99.90;;;;;;5096060;28;20205;-80
2023/02/23 12:37:00;;;;;;;46.17;27.43;;;10.60;99.90;;;;;;5082339;28;20198;-81
2023/02/23 12:39:31;;;;;;;46.83;27.57;;;10.50;99.90;;;;;;5095168;28;20210;-79
2023/02/23 12:42:05;;;;;;;45.33;27.17;;;10.50;99.90;;;;;;5095137;28;20206;-81
2023/02/23 12:44:38;;;;;;;46.37;28.57;;;10.60;99.90;;;;;;5086308;28;20203;-81
2023/02/23 12:47:13;;;;;;;44.73;27.50;;;10.70;99.90;;;;;;5092195;28;20201;-80
2023/02/23 12:49:45;;;;;;;47.50;27.27;;;10.60;99.90;;;;;;5095310;28;20212;-81
2023/02/23 12:52:16;;;;;;;49.97;34.28;;;10.30;99.90;;;;;;5088348;28;20428;-80
2023/02/23 12:54:45;;;;;;;44.97;28.43;;;10.40;99.90;;;;;;5087346;28;20204;-80
2023/02/23 12:57:22;;;;;;;44.13;27.20;;;10.30;99.90;;;;;;5095313;28;20194;-81
2023/02/23 13:00:29;;;;;;;47.23;28.70;;;10.10;99.90;;;;;;5081537;28;20298;-81
2023/02/23 13:03:16;;;;;;;47.17;28.03;;;10.30;99.90;;;;;;5095276;28;20205;-81
2023/02/23 13:05:49;;;;;;;46.30;27.40;;;10.30;99.90;;;;;;5076055;28;20234;-80
2023/02/23 13:08:25;;;;;;;48.53;28.30;;;10.50;99.90;;;;;;5081526;28;20203;-81
2023/02/23 13:11:00;;;;;;;42.70;27.37;;;10.80;99.90;;;;;;5088059;28;20244;-82
2023/02/23 13:13:34;;;;;;;41.63;27.20;;;10.60;99.90;;;;;;5073633;28;20219;-82
2023/02/23 13:16:08;;;;;;;43.23;27.53;;;10.50;99.90;;;;;;5074888;28;20649;-79
2023/02/23 13:18:38;;;;;;;44.07;26.20;;;10.50;99.90;;;;;;5074283;28;20239;-80
2023/02/23 13:21:19;;;;;;;43.43;25.27;;;10.70;99.90;;;;;;5074533;28;20203;-81
2023/02/23 13:23:56;;;;;;;40.33;26.70;;;10.70;99.90;;;;;;5074485;28;20199;-81
2023/02/23 13:26:37;;;;;;;43.93;25.60;;;11.00;99.90;;;;;;5073961;28;20242;-80
2023/02/23 13:29:10;;;;;;;41.93;25.43;;;10.80;99.90;;;;;;5079729;28;20241;-83
2023/02/23 13:31:40;;;;;;;38.03;23.97;;;10.70;99.90;;;;;;5092773;28;20186;-84
2023/02/23 13:34:11;;;;;;;40.45;31.02;;;10.90;99.90;;;;;;5094483;28;20782;-78
2023/02/23 13:36:41;;;;;;;38.37;25.37;;;10.80;99.90;;;;;;5093977;28;20231;-82
2023/02/23 13:39:28;;;;;;;34.80;23.03;;;10.80;99.90;;;;;;5094516;28;20670;-79
2023/02/23 13:42:08;;;;;;;36.53;22.90;;;11.10;99.90;;;;;;5094383;28;20206;-79
2023/02/23 13:44:41;;;;;;;35.27;22.57;;;11.20;99.90;;;;;;5094725;28;20303;-79
2023/02/23 13:47:19;;;;;;;35.03;21.83;;;11.20;99.90;;;;;;5093942;28;20232;-78
2023/02/23 13:49:51;;;;;;;32.37;20.17;;;11.50;99.90;;;;;;5094020;28;20229;-81
2023/02/23 13:52:28;;;;;;;29.63;20.13;;;11.30;99.90;;;;;;5094529;28;20260;-80
2023/02/23 13:55:01;;;;;;;34.13;21.13;;;11.30;99.90;;;;;;5094086;28;20195;-79
2023/02/23 13:57:29;;;;;;;30.23;20.10;;;11.30;99.90;;;;;;5094331;28;20200;-79
2023/02/23 13:59:57;;;;;;;35.60;21.87;;;11.30;99.90;;;;;;5094465;28;20554;-81
2023/02/23 14:02:36;;;;;;;28.50;18.93;;;11.30;99.90;;;;;;5094246;28;20308;-78
2023/02/23 14:05:07;;;;;;;31.23;19.37;;;11.00;99.90;;;;;;5093972;28;20206;-81
2023/02/23 14:07:42;;;;;;;29.23;20.30;;;10.90;99.90;;;;;;5094040;28;20606;-78
2023/02/23 14:10:15;;;;;;;29.17;18.63;;;11.00;99.90;;;;;;5093987;28;20579;-80